sensor_id;sensor_type;location;lat;lon;timestamp;pressure;altitude;pressure_sealevel;temperature;humidity
3796;BME280;1913;50.660;7.834;2023-05-16T00:00:18;150638.63;;;10.51;100.00
3796;BME280;1913;50.660;7.834;2023-05-16T00:02:44;150623.53;;;10.45;100.00
3796;BME280;1913;50.660;7.834;2023-05-16T00:05:10;150627.34;;;10.46;100.00
3796;BME280;1913;50.660;7.834;2023-05-16T00:07:38;150614.75;;;10.41;100.00
3796;BME280;1913;50.660;7.834;2023-05-16T00:10:04;150598.41;;;10.35;100.00
3796;BME280;1913;50.660;7.834;2023-05-16T00:12:29;150609.75;;;10.39;100.00
3796;BME280;1913;50.660;7.834;2023-05-16T00:14:56;150598.41;;;10.35;100.00
3796;BME280;1913;50.660;7.834;2023-05-16T00:17:23;150597.16;;;10.34;100.00
3796;BME280;1913;50.660;7.834;2023-05-16T00:19:53;150605.94;;;10.38;100.00
3796;BME280;1913;50.660;7.834;2023-05-16T00:22:22;150603.44;;;10.37;100.00
3796;BME280;1913;50.660;7.834;2023-05-16T00:24:48;150594.66;;;10.33;100.00
3796;BME280;1913;50.660;7.834;2023-05-16T00:27:13;150604.69;;;10.37;100.00
3796;BME280;1913;50.660;7.834;2023-05-16T00:29:39;150609.75;;;10.39;100.00
3796;BME280;1913;50.660;7.834;2023-05-16T00:32:05;150582.06;;;10.28;100.00
3796;BME280;1913;50.660;7.834;2023-05-16T00:34:32;150577.06;;;10.26;100.00
3796;BME280;1913;50.660;7.834;2023-05-16T00:36:58;150579.56;;;10.27;100.00
3796;BME280;1913;50.660;7.834;2023-05-16T00:39:23;150558.19;;;10.18;100.00
3796;BME280;1913;50.660;7.834;2023-05-16T00:41:49;150540.59;;;10.11;100.00
3796;BME280;1913;50.660;7.834;2023-05-16T00:44:14;150544.34;;;10.13;100.00
3796;BME280;1913;50.660;7.834;2023-05-16T00:46:40;150574.53;;;10.25;100.00
3796;BME280;1913;50.660;7.834;2023-05-16T00:49:05;150559.44;;;10.19;100.00
3796;BME280;1913;50.660;7.834;2023-05-16T00:51:31;150534.31;;;10.08;100.00
3796;BME280;1913;50.660;7.834;2023-05-16T00:53:56;150545.59;;;10.13;100.00
3796;BME280;1913;50.660;7.834;2023-05-16T00:56:22;150516.72;;;10.01;100.00
3796;BME280;1913;50.660;7.834;2023-05-16T00:58:48;150539.34;;;10.11;100.00
3796;BME280;1913;50.660;7.834;2023-05-16T01:01:14;150504.19;;;9.96;100.00
3796;BME280;1913;50.660;7.834;2023-05-16T01:03:41;150511.69;;;9.99;100.00
3796;BME280;1913;50.660;7.834;2023-05-16T01:06:06;150494.09;;;9.92;100.00
3796;BME280;1913;50.660;7.834;2023-05-16T01:08:32;150526.75;;;10.05;100.00
3796;BME280;1913;50.660;7.834;2023-05-16T01:11:03;150540.59;;;10.11;100.00
3796;BME280;1913;50.660;7.834;2023-05-16T01:16:45;150505.44;;;9.97;100.00
3796;BME280;1913;50.660;7.834;2023-05-16T01:22:17;150501.63;;;9.95;100.00
3796;BME280;1913;50.660;7.834;2023-05-16T01:25:04;150524.25;;;10.04;100.00
3796;BME280;1913;50.660;7.834;2023-05-16T01:27:30;150471.50;;;9.83;100.00
3796;BME280;1913;50.660;7.834;2023-05-16T01:29:56;150495.38;;;9.93;100.00
3796;BME280;1913;50.660;7.834;2023-05-16T01:32:21;150519.22;;;10.02;100.00
3796;BME280;1913;50.660;7.834;2023-05-16T01:34:48;150502.88;;;9.96;100.00
3796;BME280;1913;50.660;7.834;2023-05-16T01:37:35;150499.13;;;9.94;100.00
3796;BME280;1913;50.660;7.834;2023-05-16T01:42:35;150458.94;;;9.78;100.00
3796;BME280;1913;50.660;7.834;2023-05-16T01:47:30;150458.94;;;9.78;100.00
3796;BME280;1913;50.660;7.834;2023-05-16T01:50:12;150446.38;;;9.73;100.00
3796;BME280;1913;50.660;7.834;2023-05-16T01:52:45;150406.19;;;9.56;100.00
3796;BME280;1913;50.660;7.834;2023-05-16T01:55:46;150435.09;;;9.68;100.00
3796;BME280;1913;50.660;7.834;2023-05-16T01:58:17;150431.31;;;9.67;100.00
3796;BME280;1913;50.660;7.834;2023-05-16T02:00:44;150417.53;;;9.61;100.00
3796;BME280;1913;50.660;7.834;2023-05-16T02:03:09;150422.50;;;9.63;100.00
3796;BME280;1913;50.660;7.834;2023-05-16T02:05:34;150376.06;;;9.44;100.00
3796;BME280;1913;50.660;7.834;2023-05-16T02:08:00;150397.41;;;9.53;100.00
3796;BME280;1913;50.660;7.834;2023-05-16T02:10:26;150386.09;;;9.48;100.00
3796;BME280;1913;50.660;7.834;2023-05-16T02:12:52;150401.19;;;9.54;100.00
3796;BME280;1913;50.660;7.834;2023-05-16T02:15:18;150382.38;;;9.47;100.00
3796;BME280;1913;50.660;7.834;2023-05-16T02:17:43;150387.34;;;9.49;100.00
3796;BME280;1913;50.660;7.834;2023-05-16T02:20:09;150358.50;;;9.37;100.00
3796;BME280;1913;50.660;7.834;2023-05-16T02:22:35;150377.31;;;9.45;100.00
3796;BME280;1913;50.660;7.834;2023-05-16T02:25:02;150369.78;;;9.42;100.00
3796;BME280;1913;50.660;7.834;2023-05-16T02:27:31;150353.44;;;9.35;100.00
3796;BME280;1913;50.660;7.834;2023-05-16T02:29:57;150342.16;;;9.30;100.00
3796;BME280;1913;50.660;7.834;2023-05-16T02:32:22;150367.28;;;9.41;100.00
3796;BME280;1913;50.660;7.834;2023-05-16T02:34:48;150357.25;;;9.37;100.00
3796;BME280;1913;50.660;7.834;2023-05-16T02:37:13;150338.41;;;9.29;100.00
3796;BME280;1913;50.660;7.834;2023-05-16T02:39:39;150356.00;;;9.36;100.00
3796;BME280;1913;50.660;7.834;2023-05-16T02:42:05;150373.56;;;9.43;100.00
3796;BME280;1913;50.660;7.834;2023-05-16T02:44:31;150352.22;;;9.34;100.00
3796;BME280;1913;50.660;7.834;2023-05-16T02:46:56;150354.69;;;9.35;100.00
3796;BME280;1913;50.660;7.834;2023-05-16T02:49:22;150338.41;;;9.29;100.00
3796;BME280;1913;50.660;7.834;2023-05-16T02:51:47;150353.44;;;9.35;100.00
3796;BME280;1913;50.660;7.834;2023-05-16T02:54:12;150330.88;;;9.26;100.00
3796;BME280;1913;50.660;7.834;2023-05-16T02:56:38;150345.91;;;9.32;100.00
3796;BME280;1913;50.660;7.834;2023-05-16T02:59:03;150327.09;;;9.24;100.00
3796;BME280;1913;50.660;7.834;2023-05-16T03:01:29;150335.88;;;9.28;100.00
3796;BME280;1913;50.660;7.834;2023-05-16T03:03:54;150307.00;;;9.16;100.00
3796;BME280;1913;50.660;7.834;2023-05-16T03:06:20;150307.00;;;9.16;100.00
3796;BME280;1913;50.660;7.834;2023-05-16T03:08:45;150279.41;;;9.05;100.00
3796;BME280;1913;50.660;7.834;2023-05-16T03:11:11;150258.03;;;8.96;100.00
3796;BME280;1913;50.660;7.834;2023-05-16T03:13:36;150264.34;;;8.99;100.00
3796;BME280;1913;50.660;7.834;2023-05-16T03:16:02;150261.84;;;8.98;100.00
3796;BME280;1913;50.660;7.834;2023-05-16T03:18:28;150265.59;;;8.99;100.00
3796;BME280;1913;50.660;7.834;2023-05-16T03:20:53;150286.94;;;9.08;100.00
3796;BME280;1913;50.660;7.834;2023-05-16T03:23:19;150278.16;;;9.04;100.00
3796;BME280;1913;50.660;7.834;2023-05-16T03:25:45;150290.69;;;9.09;100.00
3796;BME280;1913;50.660;7.834;2023-05-16T03:28:11;150298.22;;;9.13;100.00
3796;BME280;1913;50.660;7.834;2023-05-16T03:30:36;150291.94;;;9.10;100.00
3796;BME280;1913;50.660;7.834;2023-05-16T03:33:02;150281.91;;;9.06;100.00
3796;BME280;1913;50.660;7.834;2023-05-16T03:35:29;150260.59;;;8.97;100.00
3796;BME280;1913;50.660;7.834;2023-05-16T03:37:55;150259.34;;;8.97;100.00
3796;BME280;1913;50.660;7.834;2023-05-16T03:40:20;150231.69;;;8.85;100.00
3796;BME280;1913;50.660;7.834;2023-05-16T03:42:46;150221.66;;;8.81;100.00
3796;BME280;1913;50.660;7.834;2023-05-16T03:45:11;150226.69;;;8.83;100.00
3796;BME280;1913;50.660;7.834;2023-05-16T03:47:36;150207.88;;;8.76;100.00
3796;BME280;1913;50.660;7.834;2023-05-16T03:50:02;150184.03;;;8.66;100.00
3796;BME280;1913;50.660;7.834;2023-05-16T03:52:28;150180.28;;;8.65;100.00
3796;BME280;1913;50.660;7.834;2023-05-16T03:54:53;150171.50;;;8.61;100.00
3796;BME280;1913;50.660;7.834;2023-05-16T03:57:18;150158.91;;;8.56;100.00
3796;BME280;1913;50.660;7.834;2023-05-16T03:59:44;150153.94;;;8.54;100.00
3796;BME280;1913;50.660;7.834;2023-05-16T04:02:09;150172.75;;;8.61;100.00
3796;BME280;1913;50.660;7.834;2023-05-16T04:04:36;150161.41;;;8.57;100.00
3796;BME280;1913;50.660;7.834;2023-05-16T04:07:01;150131.31;;;8.45;100.00
3796;BME280;1913;50.660;7.834;2023-05-16T04:09:27;150143.84;;;8.50;100.00
3796;BME280;1913;50.660;7.834;2023-05-16T04:11:52;150130.06;;;8.44;100.00
3796;BME280;1913;50.660;7.834;2023-05-16T04:14:20;150121.28;;;8.41;100.00
3796;BME280;1913;50.660;7.834;2023-05-16T04:16:45;150146.38;;;8.51;100.00
3796;BME280;1913;50.660;7.834;2023-05-16T04:19:10;150138.84;;;8.48;100.00
3796;BME280;1913;50.660;7.834;2023-05-16T04:21:36;150127.56;;;8.43;100.00
3796;BME280;1913;50.660;7.834;2023-05-16T04:24:01;150126.28;;;8.43;100.00
3796;BME280;1913;50.660;7.834;2023-05-16T04:26:27;150135.06;;;8.46;100.00
3796;BME280;1913;50.660;7.834;2023-05-16T04:28:52;150125.03;;;8.42;100.00
3796;BME280;1913;50.660;7.834;2023-05-16T04:31:17;150162.72;;;8.57;100.00
3796;BME280;1913;50.660;7.834;2023-05-16T04:33:43;150143.84;;;8.50;100.00
3796;BME280;1913;50.660;7.834;2023-05-16T04:36:08;150137.59;;;8.47;100.00
3796;BME280;1913;50.660;7.834;2023-05-16T04:38:34;150162.72;;;8.57;100.00
3796;BME280;1913;50.660;7.834;2023-05-16T04:41:02;150171.50;;;8.61;100.00
3796;BME280;1913;50.660;7.834;2023-05-16T04:43:28;150153.94;;;8.54;100.00
3796;BME280;1913;50.660;7.834;2023-05-16T04:45:53;150133.81;;;8.46;100.00
3796;BME280;1913;50.660;7.834;2023-05-16T04:48:18;150121.28;;;8.41;100.00
3796;BME280;1913;50.660;7.834;2023-05-16T04:50:44;150101.13;;;8.32;100.00
3796;BME280;1913;50.660;7.834;2023-05-16T04:53:09;150104.94;;;8.34;100.00
3796;BME280;1913;50.660;7.834;2023-05-16T04:55:34;150084.88;;;8.26;100.00
3796;BME280;1913;50.660;7.834;2023-05-16T04:58:00;150066.00;;;8.18;100.00
3796;BME280;1913;50.660;7.834;2023-05-16T05:00:25;150062.28;;;8.16;100.00
3796;BME280;1913;50.660;7.834;2023-05-16T05:02:51;150032.19;;;8.04;100.00
3796;BME280;1913;50.660;7.834;2023-05-16T05:05:16;150032.19;;;8.04;100.00
3796;BME280;1913;50.660;7.834;2023-05-16T05:07:41;150019.63;;;7.99;100.00
3796;BME280;1913;50.660;7.834;2023-05-16T05:10:07;150009.59;;;7.95;100.00
3796;BME280;1913;50.660;7.834;2023-05-16T05:12:33;149992.03;;;7.88;100.00
3796;BME280;1913;50.660;7.834;2023-05-16T05:14:59;150029.63;;;8.03;100.00
3796;BME280;1913;50.660;7.834;2023-05-16T05:17:24;150044.72;;;8.09;100.00
3796;BME280;1913;50.660;7.834;2023-05-16T05:19:49;150028.38;;;8.03;100.00
3796;BME280;1913;50.660;7.834;2023-05-16T05:22:14;150034.69;;;8.05;100.00
3796;BME280;1913;50.660;7.834;2023-05-16T05:24:40;149998.31;;;7.90;100.00
3796;BME280;1913;50.660;7.834;2023-05-16T05:27:05;149995.78;;;7.89;100.00
3796;BME280;1913;50.660;7.834;2023-05-16T05:29:31;149989.53;;;7.87;100.00
3796;BME280;1913;50.660;7.834;2023-05-16T05:31:56;149997.06;;;7.90;100.00
3796;BME280;1913;50.660;7.834;2023-05-16T05:34:21;150000.81;;;7.91;100.00
3796;BME280;1913;50.660;7.834;2023-05-16T05:36:47;149989.53;;;7.87;100.00
3796;BME280;1913;50.660;7.834;2023-05-16T05:39:12;149985.75;;;7.85;100.00
3796;BME280;1913;50.660;7.834;2023-05-16T05:41:37;150004.56;;;7.93;100.00
3796;BME280;1913;50.660;7.834;2023-05-16T05:44:04;150015.88;;;7.98;100.00
3796;BME280;1913;50.660;7.834;2023-05-16T05:46:29;149994.53;;;7.89;100.00
3796;BME280;1913;50.660;7.834;2023-05-16T05:48:55;149999.56;;;7.91;100.00
3796;BME280;1913;50.660;7.834;2023-05-16T05:51:20;149989.53;;;7.87;100.00
3796;BME280;1913;50.660;7.834;2023-05-16T05:53:46;149945.63;;;7.69;100.00
3796;BME280;1913;50.660;7.834;2023-05-16T05:56:11;149966.94;;;7.78;100.00
3796;BME280;1913;50.660;7.834;2023-05-16T05:58:37;149936.88;;;7.65;100.00
3796;BME280;1913;50.660;7.834;2023-05-16T06:01:03;149935.63;;;7.65;100.00
3796;BME280;1913;50.660;7.834;2023-05-16T06:03:28;149944.41;;;7.68;100.00
3796;BME280;1913;50.660;7.834;2023-05-16T06:05:53;149936.88;;;7.65;100.00
3796;BME280;1913;50.660;7.834;2023-05-16T06:08:19;149945.63;;;7.69;100.00
3796;BME280;1913;50.660;7.834;2023-05-16T06:10:44;149930.59;;;7.63;100.00
3796;BME280;1913;50.660;7.834;2023-05-16T06:13:10;149929.34;;;7.62;100.00
3796;BME280;1913;50.660;7.834;2023-05-16T06:15:35;149949.38;;;7.71;100.00
3796;BME280;1913;50.660;7.834;2023-05-16T06:18:01;149961.94;;;7.76;100.00
3796;BME280;1913;50.660;7.834;2023-05-16T06:20:26;149998.31;;;7.90;100.00
3796;BME280;1913;50.660;7.834;2023-05-16T06:22:51;149980.75;;;7.83;100.00
3796;BME280;1913;50.660;7.834;2023-05-16T06:25:17;150015.88;;;7.98;100.00
3796;BME280;1913;50.660;7.834;2023-05-16T06:27:42;150005.84;;;7.94;100.00
3796;BME280;1913;50.660;7.834;2023-05-16T06:30:07;150005.84;;;7.94;100.00
3796;BME280;1913;50.660;7.834;2023-05-16T06:32:33;150040.97;;;8.08;100.00
3796;BME280;1913;50.660;7.834;2023-05-16T06:34:58;150057.22;;;8.14;100.00
3796;BME280;1913;50.660;7.834;2023-05-16T06:37:23;150061.03;;;8.16;100.00
3796;BME280;1913;50.660;7.834;2023-05-16T06:39:50;150044.72;;;8.09;100.00
3796;BME280;1913;50.660;7.834;2023-05-16T06:42:15;150027.16;;;8.02;100.00
3796;BME280;1913;50.660;7.834;2023-05-16T06:44:40;150024.66;;;8.01;100.00
3796;BME280;1913;50.660;7.834;2023-05-16T06:47:06;150039.66;;;8.07;100.00
3796;BME280;1913;50.660;7.834;2023-05-16T06:49:32;150038.41;;;8.07;100.00
3796;BME280;1913;50.660;7.834;2023-05-16T06:51:57;150064.75;;;8.18;100.00
3796;BME280;1913;50.660;7.834;2023-05-16T06:54:22;150079.84;;;8.24;100.00
3796;BME280;1913;50.660;7.834;2023-05-16T06:56:47;150064.75;;;8.18;100.00
3796;BME280;1913;50.660;7.834;2023-05-16T06:59:13;150081.06;;;8.24;100.00
3796;BME280;1913;50.660;7.834;2023-05-16T07:01:38;150018.38;;;7.99;100.00
3796;BME280;1913;50.660;7.834;2023-05-16T07:04:03;150027.16;;;8.02;100.00
3796;BME280;1913;50.660;7.834;2023-05-16T07:06:29;149999.56;;;7.91;100.00
3796;BME280;1913;50.660;7.834;2023-05-16T07:08:55;149995.78;;;7.89;100.00
3796;BME280;1913;50.660;7.834;2023-05-16T07:11:20;150009.59;;;7.95;100.00
3796;BME280;1913;50.660;7.834;2023-05-16T07:13:45;150020.84;;;8.00;100.00
3796;BME280;1913;50.660;7.834;2023-05-16T07:16:11;150005.84;;;7.94;100.00
3796;BME280;1913;50.660;7.834;2023-05-16T07:18:37;150004.56;;;7.93;100.00
3796;BME280;1913;50.660;7.834;2023-05-16T07:21:02;150002.06;;;7.92;100.00
3796;BME280;1913;50.660;7.834;2023-05-16T07:23:27;149998.31;;;7.90;100.00
3796;BME280;1913;50.660;7.834;2023-05-16T07:25:53;150027.16;;;8.02;100.00
3796;BME280;1913;50.660;7.834;2023-05-16T07:28:18;150063.53;;;8.17;100.00
3796;BME280;1913;50.660;7.834;2023-05-16T07:30:43;150051.00;;;8.12;100.00
3796;BME280;1913;50.660;7.834;2023-05-16T07:33:09;150185.25;;;8.67;100.00
3796;BME280;1913;50.660;7.834;2023-05-16T07:35:34;150307.00;;;9.16;100.00
3796;BME280;1913;50.660;7.834;2023-05-16T07:37:59;150356.00;;;9.36;100.00
3796;BME280;1913;50.660;7.834;2023-05-16T07:40:25;150378.56;;;9.45;100.00
3796;BME280;1913;50.660;7.834;2023-05-16T07:42:53;150403.69;;;9.55;100.00
3796;BME280;1913;50.660;7.834;2023-05-16T07:45:18;150436.34;;;9.69;100.00
3796;BME280;1913;50.660;7.834;2023-05-16T07:47:44;150465.22;;;9.80;100.00
3796;BME280;1913;50.660;7.834;2023-05-16T07:50:10;150482.81;;;9.88;100.00
3796;BME280;1913;50.660;7.834;2023-05-16T07:52:35;150505.44;;;9.97;100.00
3796;BME280;1913;50.660;7.834;2023-05-16T07:55:01;150484.06;;;9.88;100.00
3796;BME280;1913;50.660;7.834;2023-05-16T07:57:27;150357.25;;;9.37;100.00
3796;BME280;1913;50.660;7.834;2023-05-16T07:59:52;150404.94;;;9.56;100.00
3796;BME280;1913;50.660;7.834;2023-05-16T08:02:18;150401.19;;;9.54;100.00
3796;BME280;1913;50.660;7.834;2023-05-16T08:04:44;150476.50;;;9.85;100.00
3796;BME280;1913;50.660;7.834;2023-05-16T08:07:09;150480.31;;;9.87;100.00
3796;BME280;1913;50.660;7.834;2023-05-16T08:09:35;150560.69;;;10.19;100.00
3796;BME280;1913;50.660;7.834;2023-05-16T08:12:00;150616.00;;;10.42;100.00
3796;BME280;1913;50.660;7.834;2023-05-16T08:14:30;150724.09;;;10.86;100.00
3796;BME280;1913;50.660;7.834;2023-05-16T08:16:59;150771.84;;;11.05;100.00
3796;BME280;1913;50.660;7.834;2023-05-16T08:19:25;150891.28;;;11.54;100.00
3796;BME280;1913;50.660;7.834;2023-05-16T08:21:50;150985.66;;;11.92;100.00
3796;BME280;1913;50.660;7.834;2023-05-16T08:24:15;151048.53;;;12.17;100.00
3796;BME280;1913;50.660;7.834;2023-05-16T08:26:41;151100.13;;;12.38;100.00
3796;BME280;1913;50.660;7.834;2023-05-16T08:29:06;151111.44;;;12.43;100.00
3796;BME280;1913;50.660;7.834;2023-05-16T08:31:31;151220.88;;;12.87;100.00
3796;BME280;1913;50.660;7.834;2023-05-16T08:33:57;151200.75;;;12.79;100.00
3796;BME280;1913;50.660;7.834;2023-05-16T08:36:22;151179.38;;;12.70;100.00
3796;BME280;1913;50.660;7.834;2023-05-16T08:38:51;151069.91;;;12.26;100.00
3796;BME280;1913;50.660;7.834;2023-05-16T08:41:16;151032.19;;;12.11;100.00
3796;BME280;1913;50.660;7.834;2023-05-16T08:43:42;150956.66;;;11.80;100.00
3796;BME280;1913;50.660;7.834;2023-05-16T08:46:08;150871.13;;;11.45;100.00
3796;BME280;1913;50.660;7.834;2023-05-16T08:48:33;150968.03;;;11.85;100.00
3796;BME280;1913;50.660;7.834;2023-05-16T08:51:01;151067.41;;;12.25;100.00
3796;BME280;1913;50.660;7.834;2023-05-16T08:53:31;150989.41;;;11.93;98.42
3796;BME280;1913;50.660;7.834;2023-05-16T08:55:59;151029.69;;;12.10;100.00
3796;BME280;1913;50.660;7.834;2023-05-16T08:58:25;151095.06;;;12.36;100.00
3796;BME280;1913;50.660;7.834;2023-05-16T09:00:52;151271.25;;;13.08;100.00
3796;BME280;1913;50.660;7.834;2023-05-16T09:03:18;151427.41;;;13.71;93.54
3796;BME280;1913;50.660;7.834;2023-05-16T09:05:45;151256.13;;;13.02;85.87
3796;BME280;1913;50.660;7.834;2023-05-16T09:08:11;151251.13;;;13.00;82.72
3796;BME280;1913;50.660;7.834;2023-05-16T09:10:36;151303.97;;;13.21;91.84
3796;BME280;1913;50.660;7.834;2023-05-16T09:13:02;151198.25;;;12.78;89.31
3796;BME280;1913;50.660;7.834;2023-05-16T09:15:32;151232.25;;;12.92;91.92
3796;BME280;1913;50.660;7.834;2023-05-16T09:18:01;151163.03;;;12.64;94.90
3796;BME280;1913;50.660;7.834;2023-05-16T09:20:27;151188.19;;;12.74;94.33
3796;BME280;1913;50.660;7.834;2023-05-16T09:25:20;151326.66;;;13.30;96.10
3796;BME280;1913;50.660;7.834;2023-05-16T09:27:46;151539.50;;;14.17;88.13
3796;BME280;1913;50.660;7.834;2023-05-16T09:30:14;151689.47;;;14.77;89.71
3796;BME280;1913;50.660;7.834;2023-05-16T09:32:44;152016.00;;;16.10;74.83
3796;BME280;1913;50.660;7.834;2023-05-16T09:35:16;152072.72;;;16.33;64.39
3796;BME280;1913;50.660;7.834;2023-05-16T09:37:49;152161.03;;;16.68;57.13
3796;BME280;1913;50.660;7.834;2023-05-16T09:40:20;152378.13;;;17.56;57.44
3796;BME280;1913;50.660;7.834;2023-05-16T09:42:46;152217.88;;;16.91;49.73
3796;BME280;1913;50.660;7.834;2023-05-16T09:45:12;152299.88;;;17.24;49.48
3796;BME280;1913;50.660;7.834;2023-05-16T09:47:39;152325.13;;;17.35;50.45
3796;BME280;1913;50.660;7.834;2023-05-16T09:50:12;152188.88;;;16.80;46.03
3796;BME280;1913;50.660;7.834;2023-05-16T09:52:39;152007.16;;;16.06;51.63
3796;BME280;1913;50.660;7.834;2023-05-16T09:55:08;152116.88;;;16.50;49.58
3796;BME280;1913;50.660;7.834;2023-05-16T09:57:37;152322.63;;;17.34;49.37
3796;BME280;1913;50.660;7.834;2023-05-16T10:00:06;152318.81;;;17.32;45.50
3796;BME280;1913;50.660;7.834;2023-05-16T10:02:36;152197.69;;;16.83;46.16
3796;BME280;1913;50.660;7.834;2023-05-16T10:05:02;152207.78;;;16.87;46.61
3796;BME280;1913;50.660;7.834;2023-05-16T10:07:30;152356.69;;;17.47;49.27
3796;BME280;1913;50.660;7.834;2023-05-16T10:09:57;152385.72;;;17.59;47.05
3796;BME280;1913;50.660;7.834;2023-05-16T10:12:28;152476.66;;;17.96;44.35
3796;BME280;1913;50.660;7.834;2023-05-16T10:14:55;152312.53;;;17.30;45.60
3796;BME280;1913;50.660;7.834;2023-05-16T10:17:20;152423.56;;;17.75;44.48
3796;BME280;1913;50.660;7.834;2023-05-16T10:19:46;152371.81;;;17.54;39.61
3796;BME280;1913;50.660;7.834;2023-05-16T10:22:13;152431.22;;;17.78;42.95
3796;BME280;1913;50.660;7.834;2023-05-16T10:24:57;152514.56;;;18.11;42.38
3796;BME280;1913;50.660;7.834;2023-05-16T10:27:25;152479.22;;;17.97;40.83
3796;BME280;1913;50.660;7.834;2023-05-16T10:29:51;152254.47;;;17.06;40.69
3796;BME280;1913;50.660;7.834;2023-05-16T10:32:17;152100.50;;;16.44;40.98
3796;BME280;1913;50.660;7.834;2023-05-16T10:34:44;152072.72;;;16.33;42.11
3796;BME280;1913;50.660;7.834;2023-05-16T10:37:10;152246.88;;;17.03;42.10
3796;BME280;1913;50.660;7.834;2023-05-16T10:39:37;152505.72;;;18.08;41.30
3796;BME280;1913;50.660;7.834;2023-05-16T10:42:04;152578.94;;;18.37;40.12
3796;BME280;1913;50.660;7.834;2023-05-16T10:44:34;152797.53;;;19.26;39.37
3796;BME280;1913;50.660;7.834;2023-05-16T10:47:02;152691.41;;;18.83;37.88
3796;BME280;1913;50.660;7.834;2023-05-16T10:49:29;152466.56;;;17.92;40.05
3796;BME280;1913;50.660;7.834;2023-05-16T10:52:05;152203.97;;;16.86;41.12
3796;BME280;1913;50.660;7.834;2023-05-16T10:54:42;152113.09;;;16.49;42.75
3796;BME280;1913;50.660;7.834;2023-05-16T10:57:17;152180.03;;;16.76;42.47
3796;BME280;1913;50.660;7.834;2023-05-16T10:59:48;152233.03;;;16.97;42.53
3796;BME280;1913;50.660;7.834;2023-05-16T11:04:54;152589.03;;;18.41;43.61
3796;BME280;1913;50.660;7.834;2023-05-16T11:07:22;152414.75;;;17.71;39.14
3796;BME280;1913;50.660;7.834;2023-05-16T11:10:14;152321.38;;;17.33;40.94
3796;BME280;1913;50.660;7.834;2023-05-16T11:12:49;152504.47;;;18.07;42.20
3796;BME280;1913;50.660;7.834;2023-05-16T11:15:19;152470.38;;;17.93;39.24
3796;BME280;1913;50.660;7.834;2023-05-16T11:17:46;152397.06;;;17.64;41.65
3796;BME280;1913;50.660;7.834;2023-05-16T11:20:31;152515.81;;;18.12;39.99
3796;BME280;1913;50.660;7.834;2023-05-16T11:23:19;152749.50;;;19.06;39.70
3796;BME280;1913;50.660;7.834;2023-05-16T11:25:56;152930.28;;;19.79;38.79
3796;BME280;1913;50.660;7.834;2023-05-16T11:28:23;153066.78;;;20.34;36.14
3796;BME280;1913;50.660;7.834;2023-05-16T11:30:51;153050.38;;;20.28;35.64
3796;BME280;1913;50.660;7.834;2023-05-16T11:33:21;152754.56;;;19.08;35.82
3796;BME280;1913;50.660;7.834;2023-05-16T11:36:03;152567.59;;;18.33;39.13
3796;BME280;1913;50.660;7.834;2023-05-16T11:38:30;152467.81;;;17.92;39.73
3796;BME280;1913;50.660;7.834;2023-05-16T11:41:06;152534.75;;;18.19;37.91
3796;BME280;1913;50.660;7.834;2023-05-16T11:43:39;152513.31;;;18.11;37.32
3796;BME280;1913;50.660;7.834;2023-05-16T11:46:05;152591.56;;;18.42;38.31
3796;BME280;1913;50.660;7.834;2023-05-16T11:48:32;152650.94;;;18.66;38.96
3796;BME280;1913;50.660;7.834;2023-05-16T11:50:57;152720.47;;;18.95;39.60
3796;BME280;1913;50.660;7.834;2023-05-16T11:53:22;152615.56;;;18.52;38.50
3796;BME280;1913;50.660;7.834;2023-05-16T11:55:48;152675.00;;;18.76;36.76
3796;BME280;1913;50.660;7.834;2023-05-16T11:58:17;152552.44;;;18.27;35.73
3796;BME280;1913;50.660;7.834;2023-05-16T12:00:50;152702.78;;;18.87;37.59
3796;BME280;1913;50.660;7.834;2023-05-16T12:03:17;152592.84;;;18.43;34.92
3796;BME280;1913;50.660;7.834;2023-05-16T12:05:54;152640.84;;;18.62;37.23
3796;BME280;1913;50.660;7.834;2023-05-16T12:08:22;152587.78;;;18.41;36.21
3796;BME280;1913;50.660;7.834;2023-05-16T12:10:50;152701.53;;;18.87;36.24
3796;BME280;1913;50.660;7.834;2023-05-16T12:13:17;152729.31;;;18.98;35.86
3796;BME280;1913;50.660;7.834;2023-05-16T12:15:43;152662.34;;;18.71;36.48
3796;BME280;1913;50.660;7.834;2023-05-16T12:18:09;152634.50;;;18.60;35.66
3796;BME280;1913;50.660;7.834;2023-05-16T12:20:35;152582.72;;;18.39;36.11
3796;BME280;1913;50.660;7.834;2023-05-16T12:23:00;152605.47;;;18.48;37.39
3796;BME280;1913;50.660;7.834;2023-05-16T12:25:32;152610.53;;;18.50;34.45
3796;BME280;1913;50.660;7.834;2023-05-16T12:28:01;152418.56;;;17.73;35.54
3796;BME280;1913;50.660;7.834;2023-05-16T12:30:29;152177.47;;;16.75;37.06
3796;BME280;1913;50.660;7.834;2023-05-16T12:32:58;152022.31;;;16.12;37.50
3796;BME280;1913;50.660;7.834;2023-05-16T12:35:24;152092.94;;;16.41;39.22
3796;BME280;1913;50.660;7.834;2023-05-16T12:37:50;152156.00;;;16.66;38.84
3796;BME280;1913;50.660;7.834;2023-05-16T12:40:16;152074.03;;;16.33;39.17
3796;BME280;1913;50.660;7.834;2023-05-16T12:42:43;152108.03;;;16.47;39.00
3796;BME280;1913;50.660;7.834;2023-05-16T12:45:15;152174.97;;;16.74;39.33
3796;BME280;1913;50.660;7.834;2023-05-16T12:47:44;152299.88;;;17.24;37.64
3796;BME280;1913;50.660;7.834;2023-05-16T12:50:10;152509.50;;;18.09;36.08
3796;BME280;1913;50.660;7.834;2023-05-16T12:52:54;152590.28;;;18.42;34.89
3796;BME280;1913;50.660;7.834;2023-05-16T12:55:22;152595.38;;;18.44;35.83
3796;BME280;1913;50.660;7.834;2023-05-16T12:57:49;152378.13;;;17.56;36.29
3796;BME280;1913;50.660;7.834;2023-05-16T13:00:17;152292.31;;;17.21;36.04
3796;BME280;1913;50.660;7.834;2023-05-16T13:02:48;152349.13;;;17.44;35.86
3796;BME280;1913;50.660;7.834;2023-05-16T13:05:14;152328.94;;;17.36;36.33
3796;BME280;1913;50.660;7.834;2023-05-16T13:07:39;152293.59;;;17.22;37.27
3796;BME280;1913;50.660;7.834;2023-05-16T13:10:09;152325.13;;;17.35;36.65
3796;BME280;1913;50.660;7.834;2023-05-16T13:12:39;152072.72;;;16.33;38.15
3796;BME280;1913;50.660;7.834;2023-05-16T13:15:06;152000.84;;;16.03;39.03
3796;BME280;1913;50.660;7.834;2023-05-16T13:17:36;151994.56;;;16.01;41.50
3796;BME280;1913;50.660;7.834;2023-05-16T13:20:03;152047.53;;;16.22;39.94
3796;BME280;1913;50.660;7.834;2023-05-16T13:22:32;152157.25;;;16.67;40.03
3796;BME280;1913;50.660;7.834;2023-05-16T13:24:58;152291.06;;;17.21;41.21